sensor_id;sensor_type;location;lat;lon;timestamp;P1;durP1;ratioP1;P2;durP2;ratioP2
20997;SDS011;10657;51.276;6.390;2023-04-15T00:01:04;7.43;;;3.63;;
20997;SDS011;10657;51.276;6.390;2023-04-15T00:03:31;6.88;;;3.33;;
20997;SDS011;10657;51.276;6.390;2023-04-15T00:06:00;7.22;;;3.30;;
20997;SDS011;10657;51.276;6.390;2023-04-15T00:08:27;7.72;;;3.88;;
20997;SDS011;10657;51.276;6.390;2023-04-15T00:10:55;7.72;;;3.83;;
20997;SDS011;10657;51.276;6.390;2023-04-15T00:13:21;8.45;;;3.78;;
20997;SDS011;10657;51.276;6.390;2023-04-15T00:15:48;8.93;;;3.85;;
20997;SDS011;10657;51.276;6.390;2023-04-15T00:18:15;8.40;;;3.80;;
20997;SDS011;10657;51.276;6.390;2023-04-15T00:20:42;8.52;;;4.18;;
20997;SDS011;10657;51.276;6.390;2023-04-15T00:23:08;8.85;;;3.78;;
20997;SDS011;10657;51.276;6.390;2023-04-15T00:25:35;10.68;;;4.15;;
20997;SDS011;10657;51.276;6.390;2023-04-15T00:28:02;9.55;;;4.40;;
20997;SDS011;10657;51.276;6.390;2023-04-15T00:30:28;10.40;;;4.10;;
20997;SDS011;10657;51.276;6.390;2023-04-15T00:32:56;8.23;;;3.88;;
20997;SDS011;10657;51.276;6.390;2023-04-15T00:35:23;9.80;;;4.18;;
20997;SDS011;10657;51.276;6.390;2023-04-15T00:37:49;9.55;;;3.83;;
20997;SDS011;10657;51.276;6.390;2023-04-15T00:40:16;8.82;;;4.35;;
20997;SDS011;10657;51.276;6.390;2023-04-15T00:42:46;9.60;;;4.40;;
20997;SDS011;10657;51.276;6.390;2023-04-15T00:45:13;8.10;;;3.63;;
20997;SDS011;10657;51.276;6.390;2023-04-15T00:47:40;7.22;;;3.45;;
20997;SDS011;10657;51.276;6.390;2023-04-15T00:50:09;9.18;;;4.10;;
20997;SDS011;10657;51.276;6.390;2023-04-15T00:52:36;9.75;;;4.10;;
20997;SDS011;10657;51.276;6.390;2023-04-15T00:55:04;8.38;;;3.65;;
20997;SDS011;10657;51.276;6.390;2023-04-15T00:57:31;8.80;;;4.10;;
20997;SDS011;10657;51.276;6.390;2023-04-15T00:59:59;9.43;;;4.00;;
20997;SDS011;10657;51.276;6.390;2023-04-15T01:02:26;6.93;;;3.50;;
20997;SDS011;10657;51.276;6.390;2023-04-15T01:04:53;7.65;;;3.90;;
20997;SDS011;10657;51.276;6.390;2023-04-15T01:07:21;9.02;;;3.83;;
20997;SDS011;10657;51.276;6.390;2023-04-15T01:09:47;8.82;;;3.70;;
20997;SDS011;10657;51.276;6.390;2023-04-15T01:12:14;9.50;;;4.00;;
20997;SDS011;10657;51.276;6.390;2023-04-15T01:14:45;7.63;;;3.47;;
20997;SDS011;10657;51.276;6.390;2023-04-15T01:17:12;7.45;;;3.58;;
20997;SDS011;10657;51.276;6.390;2023-04-15T01:19:39;7.88;;;3.85;;
20997;SDS011;10657;51.276;6.390;2023-04-15T01:22:06;7.50;;;3.85;;
20997;SDS011;10657;51.276;6.390;2023-04-15T01:24:33;9.13;;;4.38;;
20997;SDS011;10657;51.276;6.390;2023-04-15T01:27:01;8.82;;;3.63;;
20997;SDS011;10657;51.276;6.390;2023-04-15T01:29:31;8.20;;;4.18;;
20997;SDS011;10657;51.276;6.390;2023-04-15T01:31:58;9.55;;;3.80;;
20997;SDS011;10657;51.276;6.390;2023-04-15T01:34:25;8.85;;;3.88;;
20997;SDS011;10657;51.276;6.390;2023-04-15T01:36:52;11.60;;;3.83;;
20997;SDS011;10657;51.276;6.390;2023-04-15T01:39:18;10.02;;;4.00;;
20997;SDS011;10657;51.276;6.390;2023-04-15T01:41:45;8.55;;;4.28;;
20997;SDS011;10657;51.276;6.390;2023-04-15T01:44:12;12.77;;;4.80;;
20997;SDS011;10657;51.276;6.390;2023-04-15T01:46:42;9.20;;;4.45;;
20997;SDS011;10657;51.276;6.390;2023-04-15T01:49:09;9.57;;;4.63;;
20997;SDS011;10657;51.276;6.390;2023-04-15T01:51:35;8.82;;;3.72;;
20997;SDS011;10657;51.276;6.390;2023-04-15T01:54:02;7.25;;;3.88;;
20997;SDS011;10657;51.276;6.390;2023-04-15T01:56:29;8.13;;;3.78;;
20997;SDS011;10657;51.276;6.390;2023-04-15T01:58:55;7.90;;;3.97;;
20997;SDS011;10657;51.276;6.390;2023-04-15T02:01:22;7.90;;;3.65;;
20997;SDS011;10657;51.276;6.390;2023-04-15T02:03:49;8.35;;;3.40;;
20997;SDS011;10657;51.276;6.390;2023-04-15T02:06:16;8.07;;;4.07;;
20997;SDS011;10657;51.276;6.390;2023-04-15T02:08:43;10.40;;;4.07;;
20997;SDS011;10657;51.276;6.390;2023-04-15T02:11:10;10.52;;;3.80;;
20997;SDS011;10657;51.276;6.390;2023-04-15T02:13:36;9.77;;;4.03;;
20997;SDS011;10657;51.276;6.390;2023-04-15T02:16:03;9.55;;;3.97;;
20997;SDS011;10657;51.276;6.390;2023-04-15T02:18:40;13.45;;;4.05;;
20997;SDS011;10657;51.276;6.390;2023-04-15T02:21:06;10.93;;;3.97;;
20997;SDS011;10657;51.276;6.390;2023-04-15T02:23:34;8.05;;;4.13;;
20997;SDS011;10657;51.276;6.390;2023-04-15T02:26:00;8.70;;;3.60;;
20997;SDS011;10657;51.276;6.390;2023-04-15T02:28:27;8.45;;;4.10;;
20997;SDS011;10657;51.276;6.390;2023-04-15T02:30:53;9.30;;;4.28;;
20997;SDS011;10657;51.276;6.390;2023-04-15T02:33:22;10.65;;;4.85;;
20997;SDS011;10657;51.276;6.390;2023-04-15T02:35:49;9.10;;;4.75;;
20997;SDS011;10657;51.276;6.390;2023-04-15T02:38:16;11.05;;;5.05;;
20997;SDS011;10657;51.276;6.390;2023-04-15T02:40:43;9.40;;;5.30;;
20997;SDS011;10657;51.276;6.390;2023-04-15T02:43:09;10.05;;;4.88;;
20997;SDS011;10657;51.276;6.390;2023-04-15T02:45:36;8.57;;;4.13;;
20997;SDS011;10657;51.276;6.390;2023-04-15T02:48:03;11.10;;;4.35;;
20997;SDS011;10657;51.276;6.390;2023-04-15T02:50:31;7.95;;;4.07;;
20997;SDS011;10657;51.276;6.390;2023-04-15T02:52:58;10.57;;;4.63;;
20997;SDS011;10657;51.276;6.390;2023-04-15T02:55:27;8.57;;;4.22;;
20997;SDS011;10657;51.276;6.390;2023-04-15T02:57:53;10.60;;;4.30;;
20997;SDS011;10657;51.276;6.390;2023-04-15T03:00:20;8.57;;;4.20;;
20997;SDS011;10657;51.276;6.390;2023-04-15T03:02:47;10.20;;;4.10;;
20997;SDS011;10657;51.276;6.390;2023-04-15T03:05:17;9.30;;;4.47;;
20997;SDS011;10657;51.276;6.390;2023-04-15T03:07:44;8.20;;;4.05;;
20997;SDS011;10657;51.276;6.390;2023-04-15T03:10:10;8.73;;;4.20;;
20997;SDS011;10657;51.276;6.390;2023-04-15T03:12:37;9.57;;;4.85;;
20997;SDS011;10657;51.276;6.390;2023-04-15T03:15:04;9.48;;;5.47;;
20997;SDS011;10657;51.276;6.390;2023-04-15T03:17:32;9.98;;;5.07;;
20997;SDS011;10657;51.276;6.390;2023-04-15T03:20:00;8.60;;;4.28;;
20997;SDS011;10657;51.276;6.390;2023-04-15T03:22:28;8.90;;;4.88;;
20997;SDS011;10657;51.276;6.390;2023-04-15T03:24:54;9.02;;;4.95;;
20997;SDS011;10657;51.276;6.390;2023-04-15T03:27:21;9.65;;;5.72;;
20997;SDS011;10657;51.276;6.390;2023-04-15T03:29:48;11.23;;;5.43;;
20997;SDS011;10657;51.276;6.390;2023-04-15T03:32:14;13.20;;;4.97;;
20997;SDS011;10657;51.276;6.390;2023-04-15T03:34:41;8.95;;;4.47;;
20997;SDS011;10657;51.276;6.390;2023-04-15T03:37:08;10.40;;;4.75;;
20997;SDS011;10657;51.276;6.390;2023-04-15T03:39:35;9.02;;;4.88;;
20997;SDS011;10657;51.276;6.390;2023-04-15T03:42:02;11.10;;;4.68;;
20997;SDS011;10657;51.276;6.390;2023-04-15T03:44:28;11.27;;;5.32;;
20997;SDS011;10657;51.276;6.390;2023-04-15T03:46:55;10.30;;;5.03;;
20997;SDS011;10657;51.276;6.390;2023-04-15T03:49:22;10.23;;;4.68;;
20997;SDS011;10657;51.276;6.390;2023-04-15T03:51:49;9.88;;;4.90;;
20997;SDS011;10657;51.276;6.390;2023-04-15T03:54:16;9.68;;;5.25;;
20997;SDS011;10657;51.276;6.390;2023-04-15T03:56:42;9.43;;;5.03;;
20997;SDS011;10657;51.276;6.390;2023-04-15T03:59:09;14.82;;;5.85;;
20997;SDS011;10657;51.276;6.390;2023-04-15T04:01:36;9.25;;;5.55;;
20997;SDS011;10657;51.276;6.390;2023-04-15T04:04:03;11.40;;;5.63;;
20997;SDS011;10657;51.276;6.390;2023-04-15T04:06:30;9.90;;;5.45;;
20997;SDS011;10657;51.276;6.390;2023-04-15T04:08:56;10.40;;;5.90;;
20997;SDS011;10657;51.276;6.390;2023-04-15T04:11:23;10.00;;;5.85;;
20997;SDS011;10657;51.276;6.390;2023-04-15T04:13:49;11.95;;;5.93;;
20997;SDS011;10657;51.276;6.390;2023-04-15T04:16:16;12.13;;;5.65;;
20997;SDS011;10657;51.276;6.390;2023-04-15T04:18:43;13.23;;;5.68;;
20997;SDS011;10657;51.276;6.390;2023-04-15T04:21:10;10.85;;;5.53;;
20997;SDS011;10657;51.276;6.390;2023-04-15T04:23:37;12.73;;;6.95;;
20997;SDS011;10657;51.276;6.390;2023-04-15T04:26:03;15.85;;;6.28;;
20997;SDS011;10657;51.276;6.390;2023-04-15T04:28:30;11.13;;;6.30;;
20997;SDS011;10657;51.276;6.390;2023-04-15T04:30:57;12.02;;;6.45;;
20997;SDS011;10657;51.276;6.390;2023-04-15T04:33:24;11.57;;;5.85;;
20997;SDS011;10657;51.276;6.390;2023-04-15T04:35:50;11.90;;;6.53;;
20997;SDS011;10657;51.276;6.390;2023-04-15T04:38:17;11.43;;;6.13;;
20997;SDS011;10657;51.276;6.390;2023-04-15T04:40:44;10.43;;;5.57;;
20997;SDS011;10657;51.276;6.390;2023-04-15T04:43:11;16.73;;;7.40;;
20997;SDS011;10657;51.276;6.390;2023-04-15T04:45:38;13.25;;;7.18;;
20997;SDS011;10657;51.276;6.390;2023-04-15T04:48:05;11.10;;;7.03;;
20997;SDS011;10657;51.276;6.390;2023-04-15T04:50:33;14.80;;;6.15;;
20997;SDS011;10657;51.276;6.390;2023-04-15T04:53:01;15.40;;;6.78;;
20997;SDS011;10657;51.276;6.390;2023-04-15T04:55:27;11.98;;;6.80;;
20997;SDS011;10657;51.276;6.390;2023-04-15T04:57:54;11.07;;;6.55;;
20997;SDS011;10657;51.276;6.390;2023-04-15T05:00:21;15.27;;;7.22;;
20997;SDS011;10657;51.276;6.390;2023-04-15T05:02:47;12.73;;;7.35;;
20997;SDS011;10657;51.276;6.390;2023-04-15T05:05:14;17.33;;;8.93;;
20997;SDS011;10657;51.276;6.390;2023-04-15T05:07:41;13.18;;;7.70;;
20997;SDS011;10657;51.276;6.390;2023-04-15T05:10:08;16.65;;;8.48;;
20997;SDS011;10657;51.276;6.390;2023-04-15T05:12:35;11.88;;;7.38;;
20997;SDS011;10657;51.276;6.390;2023-04-15T05:15:04;10.93;;;7.18;;
20997;SDS011;10657;51.276;6.390;2023-04-15T05:17:31;11.50;;;7.07;;
20997;SDS011;10657;51.276;6.390;2023-04-15T05:20:00;10.95;;;6.43;;
20997;SDS011;10657;51.276;6.390;2023-04-15T05:22:28;10.90;;;6.85;;
20997;SDS011;10657;51.276;6.390;2023-04-15T05:24:54;11.52;;;7.05;;
20997;SDS011;10657;51.276;6.390;2023-04-15T05:27:21;10.68;;;6.75;;
20997;SDS011;10657;51.276;6.390;2023-04-15T05:29:49;12.30;;;7.85;;
20997;SDS011;10657;51.276;6.390;2023-04-15T05:32:15;11.77;;;7.32;;
20997;SDS011;10657;51.276;6.390;2023-04-15T05:34:42;12.40;;;7.35;;
20997;SDS011;10657;51.276;6.390;2023-04-15T05:37:09;12.43;;;7.07;;
20997;SDS011;10657;51.276;6.390;2023-04-15T05:39:35;11.23;;;6.60;;
20997;SDS011;10657;51.276;6.390;2023-04-15T05:42:02;10.85;;;6.72;;
20997;SDS011;10657;51.276;6.390;2023-04-15T05:44:30;12.60;;;6.90;;
20997;SDS011;10657;51.276;6.390;2023-04-15T05:46:57;11.52;;;7.15;;
20997;SDS011;10657;51.276;6.390;2023-04-15T05:49:24;10.70;;;6.85;;
20997;SDS011;10657;51.276;6.390;2023-04-15T05:51:51;9.88;;;5.13;;
20997;SDS011;10657;51.276;6.390;2023-04-15T05:54:17;10.90;;;7.05;;
20997;SDS011;10657;51.276;6.390;2023-04-15T05:56:45;11.50;;;6.63;;
20997;SDS011;10657;51.276;6.390;2023-04-15T05:59:12;9.23;;;5.28;;
20997;SDS011;10657;51.276;6.390;2023-04-15T06:01:38;11.32;;;5.85;;
20997;SDS011;10657;51.276;6.390;2023-04-15T06:04:05;11.10;;;6.55;;
20997;SDS011;10657;51.276;6.390;2023-04-15T06:06:32;12.27;;;6.10;;
20997;SDS011;10657;51.276;6.390;2023-04-15T06:08:59;7.32;;;3.42;;
20997;SDS011;10657;51.276;6.390;2023-04-15T06:11:26;10.23;;;6.40;;
20997;SDS011;10657;51.276;6.390;2023-04-15T06:13:53;6.55;;;3.00;;
20997;SDS011;10657;51.276;6.390;2023-04-15T06:16:20;8.68;;;5.13;;
20997;SDS011;10657;51.276;6.390;2023-04-15T06:18:46;9.73;;;5.53;;
20997;SDS011;10657;51.276;6.390;2023-04-15T06:21:14;10.13;;;4.50;;
20997;SDS011;10657;51.276;6.390;2023-04-15T06:23:40;7.32;;;3.20;;
20997;SDS011;10657;51.276;6.390;2023-04-15T06:26:07;12.80;;;6.57;;
20997;SDS011;10657;51.276;6.390;2023-04-15T06:28:34;13.20;;;7.20;;
20997;SDS011;10657;51.276;6.390;2023-04-15T06:31:00;8.65;;;2.90;;
20997;SDS011;10657;51.276;6.390;2023-04-15T06:33:27;10.68;;;6.57;;
20997;SDS011;10657;51.276;6.390;2023-04-15T06:35:54;5.55;;;1.98;;
20997;SDS011;10657;51.276;6.390;2023-04-15T06:38:20;11.35;;;6.97;;
20997;SDS011;10657;51.276;6.390;2023-04-15T06:40:50;9.68;;;4.78;;
20997;SDS011;10657;51.276;6.390;2023-04-15T06:43:17;10.50;;;6.45;;
20997;SDS011;10657;51.276;6.390;2023-04-15T06:45:45;5.93;;;2.40;;
20997;SDS011;10657;51.276;6.390;2023-04-15T06:48:12;5.75;;;2.40;;
20997;SDS011;10657;51.276;6.390;2023-04-15T06:50:39;11.23;;;6.03;;
20997;SDS011;10657;51.276;6.390;2023-04-15T06:53:06;5.32;;;2.10;;
20997;SDS011;10657;51.276;6.390;2023-04-15T06:55:34;8.65;;;4.78;;
20997;SDS011;10657;51.276;6.390;2023-04-15T06:58:00;4.72;;;1.80;;
20997;SDS011;10657;51.276;6.390;2023-04-15T07:00:27;7.95;;;4.47;;
20997;SDS011;10657;51.276;6.390;2023-04-15T07:02:54;5.65;;;2.20;;
20997;SDS011;10657;51.276;6.390;2023-04-15T07:05:21;5.65;;;2.63;;
20997;SDS011;10657;51.276;6.390;2023-04-15T07:07:47;5.25;;;2.13;;
20997;SDS011;10657;51.276;6.390;2023-04-15T07:10:15;10.45;;;4.13;;
20997;SDS011;10657;51.276;6.390;2023-04-15T07:12:42;9.25;;;4.40;;
20997;SDS011;10657;51.276;6.390;2023-04-15T07:15:08;5.70;;;1.80;;
20997;SDS011;10657;51.276;6.390;2023-04-15T07:17:35;7.88;;;3.30;;
20997;SDS011;10657;51.276;6.390;2023-04-15T07:20:02;8.57;;;4.78;;
20997;SDS011;10657;51.276;6.390;2023-04-15T07:22:30;15.82;;;6.75;;
20997;SDS011;10657;51.276;6.390;2023-04-15T07:24:56;5.45;;;2.20;;
20997;SDS011;10657;51.276;6.390;2023-04-15T07:27:23;10.77;;;6.03;;
20997;SDS011;10657;51.276;6.390;2023-04-15T07:29:49;5.10;;;1.88;;
20997;SDS011;10657;51.276;6.390;2023-04-15T07:32:17;7.22;;;3.28;;
20997;SDS011;10657;51.276;6.390;2023-04-15T07:34:44;4.85;;;2.00;;
20997;SDS011;10657;51.276;6.390;2023-04-15T07:37:11;6.20;;;2.40;;
20997;SDS011;10657;51.276;6.390;2023-04-15T07:39:38;7.53;;;3.80;;
20997;SDS011;10657;51.276;6.390;2023-04-15T07:42:05;5.03;;;1.92;;
20997;SDS011;10657;51.276;6.390;2023-04-15T07:44:31;4.40;;;2.00;;
20997;SDS011;10657;51.276;6.390;2023-04-15T07:46:58;5.20;;;2.13;;
20997;SDS011;10657;51.276;6.390;2023-04-15T07:49:25;5.95;;;2.38;;
20997;SDS011;10657;51.276;6.390;2023-04-15T07:51:52;3.85;;;1.70;;
20997;SDS011;10657;51.276;6.390;2023-04-15T07:54:18;11.57;;;6.03;;
20997;SDS011;10657;51.276;6.390;2023-04-15T07:56:45;12.23;;;7.63;;
20997;SDS011;10657;51.276;6.390;2023-04-15T07:59:13;11.90;;;7.45;;
20997;SDS011;10657;51.276;6.390;2023-04-15T08:01:42;7.72;;;4.10;;
20997;SDS011;10657;51.276;6.390;2023-04-15T08:04:10;4.63;;;1.60;;
20997;SDS011;10657;51.276;6.390;2023-04-15T08:06:37;5.80;;;2.50;;
20997;SDS011;10657;51.276;6.390;2023-04-15T08:09:05;6.75;;;3.45;;
20997;SDS011;10657;51.276;6.390;2023-04-15T08:11:32;5.78;;;2.40;;
20997;SDS011;10657;51.276;6.390;2023-04-15T08:13:58;9.02;;;4.30;;
20997;SDS011;10657;51.276;6.390;2023-04-15T08:16:25;8.25;;;3.95;;
20997;SDS011;10657;51.276;6.390;2023-04-15T08:18:54;15.68;;;8.93;;
20997;SDS011;10657;51.276;6.390;2023-04-15T08:21:21;8.60;;;3.92;;
20997;SDS011;10657;51.276;6.390;2023-04-15T08:23:49;9.38;;;5.13;;
20997;SDS011;10657;51.276;6.390;2023-04-15T08:26:18;11.55;;;6.88;;
20997;SDS011;10657;51.276;6.390;2023-04-15T08:28:46;5.97;;;2.85;;
20997;SDS011;10657;51.276;6.390;2023-04-15T08:31:13;10.23;;;6.03;;
20997;SDS011;10657;51.276;6.390;2023-04-15T08:33:41;7.32;;;3.83;;
20997;SDS011;10657;51.276;6.390;2023-04-15T08:36:08;11.77;;;7.45;;
20997;SDS011;10657;51.276;6.390;2023-04-15T08:38:34;8.55;;;4.10;;
20997;SDS011;10657;51.276;6.390;2023-04-15T08:41:02;6.82;;;3.55;;
20997;SDS011;10657;51.276;6.390;2023-04-15T08:43:33;5.10;;;1.80;;
20997;SDS011;10657;51.276;6.390;2023-04-15T08:46:00;6.93;;;3.42;;
20997;SDS011;10657;51.276;6.390;2023-04-15T08:48:31;13.13;;;6.03;;
20997;SDS011;10657;51.276;6.390;2023-04-15T08:51:00;9.85;;;5.40;;
20997;SDS011;10657;51.276;6.390;2023-04-15T08:53:28;7.07;;;3.15;;
20997;SDS011;10657;51.276;6.390;2023-04-15T08:55:56;6.22;;;2.30;;
20997;SDS011;10657;51.276;6.390;2023-04-15T08:58:24;8.57;;;3.83;;
20997;SDS011;10657;51.276;6.390;2023-04-15T09:00:51;7.80;;;3.97;;
20997;SDS011;10657;51.276;6.390;2023-04-15T09:03:18;6.68;;;3.28;;
20997;SDS011;10657;51.276;6.390;2023-04-15T09:05:46;4.13;;;1.70;;
20997;SDS011;10657;51.276;6.390;2023-04-15T09:08:14;5.72;;;2.65;;
20997;SDS011;10657;51.276;6.390;2023-04-15T09:10:40;5.25;;;1.98;;
20997;SDS011;10657;51.276;6.390;2023-04-15T09:13:07;4.30;;;1.80;;
20997;SDS011;10657;51.276;6.390;2023-04-15T09:15:35;5.20;;;2.03;;
20997;SDS011;10657;51.276;6.390;2023-04-15T09:18:04;5.45;;;2.20;;
20997;SDS011;10657;51.276;6.390;2023-04-15T09:20:38;7.55;;;3.70;;
20997;SDS011;10657;51.276;6.390;2023-04-15T09:23:10;7.22;;;1.88;;
20997;SDS011;10657;51.276;6.390;2023-04-15T09:25:41;7.15;;;3.88;;
20997;SDS011;10657;51.276;6.390;2023-04-15T09:28:07;5.60;;;1.90;;
20997;SDS011;10657;51.276;6.390;2023-04-15T09:30:35;5.57;;;2.33;;
20997;SDS011;10657;51.276;6.390;2023-04-15T09:33:03;6.13;;;2.33;;
20997;SDS011;10657;51.276;6.390;2023-04-15T09:35:33;10.80;;;2.15;;
20997;SDS011;10657;51.276;6.390;2023-04-15T09:38:03;5.30;;;2.00;;
20997;SDS011;10657;51.276;6.390;2023-04-15T09:40:31;7.13;;;3.42;;
20997;SDS011;10657;51.276;6.390;2023-04-15T09:43:02;3.70;;;1.60;;
20997;SDS011;10657;51.276;6.390;2023-04-15T09:45:30;6.40;;;1.88;;
20997;SDS011;10657;51.276;6.390;2023-04-15T09:47:58;4.60;;;2.08;;
20997;SDS011;10657;51.276;6.390;2023-04-15T09:50:40;5.72;;;2.60;;
20997;SDS011;10657;51.276;6.390;2023-04-15T09:53:14;6.95;;;2.95;;
20997;SDS011;10657;51.276;6.390;2023-04-15T09:55:44;4.47;;;1.83;;
20997;SDS011;10657;51.276;6.390;2023-04-15T09:58:39;4.38;;;1.80;;
20997;SDS011;10657;51.276;6.390;2023-04-15T10:01:06;7.43;;;2.97;;
20997;SDS011;10657;51.276;6.390;2023-04-15T10:03:34;5.97;;;2.88;;
20997;SDS011;10657;51.276;6.390;2023-04-15T10:06:04;5.78;;;2.50;;
20997;SDS011;10657;51.276;6.390;2023-04-15T10:08:31;3.83;;;1.67;;
20997;SDS011;10657;51.276;6.390;2023-04-15T10:11:00;5.13;;;2.35;;
20997;SDS011;10657;51.276;6.390;2023-04-15T10:13:31;5.75;;;1.60;;
20997;SDS011;10657;51.276;6.390;2023-04-15T10:16:04;7.45;;;3.78;;
20997;SDS011;10657;51.276;6.390;2023-04-15T10:18:43;4.95;;;2.20;;
20997;SDS011;10657;51.276;6.390;2023-04-15T10:21:12;8.35;;;3.85;;
20997;SDS011;10657;51.276;6.390;2023-04-15T10:23:46;4.95;;;2.03;;
20997;SDS011;10657;51.276;6.390;2023-04-15T10:26:13;6.57;;;2.67;;
20997;SDS011;10657;51.276;6.390;2023-04-15T10:28:42;4.22;;;1.58;;
20997;SDS011;10657;51.276;6.390;2023-04-15T10:31:11;5.10;;;1.95;;
20997;SDS011;10657;51.276;6.390;2023-04-15T10:33:40;3.50;;;1.60;;
20997;SDS011;10657;51.276;6.390;2023-04-15T10:36:08;3.17;;;1.33;;
20997;SDS011;10657;51.276;6.390;2023-04-15T10:38:37;4.20;;;1.73;;
20997;SDS011;10657;51.276;6.390;2023-04-15T10:41:12;6.28;;;2.63;;
20997;SDS011;10657;51.276;6.390;2023-04-15T10:43:47;6.85;;;3.17;;
20997;SDS011;10657;51.276;6.390;2023-04-15T10:46:18;5.70;;;2.45;;
20997;SDS011;10657;51.276;6.390;2023-04-15T10:49:09;6.78;;;2.85;;
20997;SDS011;10657;51.276;6.390;2023-04-15T10:51:43;5.60;;;2.60;;
20997;SDS011;10657;51.276;6.390;2023-04-15T10:56:52;8.10;;;4.22;;
20997;SDS011;10657;51.276;6.390;2023-04-15T10:59:32;8.98;;;4.18;;
20997;SDS011;10657;51.276;6.390;2023-04-15T11:02:03;8.93;;;5.07;;
20997;SDS011;10657;51.276;6.390;2023-04-15T11:12:39;2.78;;;1.05;;
20997;SDS011;10657;51.276;6.390;2023-04-15T11:15:26;4.88;;;1.77;;
20997;SDS011;10657;51.276;6.390;2023-04-15T11:17:54;8.85;;;5.28;;
20997;SDS011;10657;51.276;6.390;2023-04-15T11:20:25;13.98;;;7.22;;
20997;SDS011;10657;51.276;6.390;2023-04-15T11:22:52;9.80;;;5.55;;
20997;SDS011;10657;51.276;6.390;2023-04-15T11:25:40;8.13;;;3.58;;
20997;SDS011;10657;51.276;6.390;2023-04-15T11:28:06;8.75;;;4.55;;
20997;SDS011;10657;51.276;6.390;2023-04-15T11:30:34;8.95;;;4.65;;
20997;SDS011;10657;51.276;6.390;2023-04-15T11:33:06;6.38;;;2.90;;
20997;SDS011;10657;51.276;6.390;2023-04-15T11:35:34;7.53;;;3.83;;
20997;SDS011;10657;51.276;6.390;2023-04-15T11:38:02;8.02;;;3.78;;
20997;SDS011;10657;51.276;6.390;2023-04-15T11:40:29;11.70;;;5.45;;
20997;SDS011;10657;51.276;6.390;2023-04-15T11:48:59;9.38;;;4.32;;
20997;SDS011;10657;51.276;6.390;2023-04-15T11:51:26;7.20;;;2.38;;
20997;SDS011;10657;51.276;6.390;2023-04-15T11:53:58;11.27;;;3.55;;
20997;SDS011;10657;51.276;6.390;2023-04-15T11:56:25;4.10;;;1.65;;
20997;SDS011;10657;51.276;6.390;2023-04-15T11:58:53;9.20;;;4.05;;
20997;SDS011;10657;51.276;6.390;2023-04-15T12:03:58;6.25;;;2.58;;
20997;SDS011;10657;51.276;6.390;2023-04-15T12:06:30;7.03;;;3.47;;
20997;SDS011;10657;51.276;6.390;2023-04-15T12:09:04;3.50;;;1.30;;
20997;SDS011;10657;51.276;6.390;2023-04-15T12:14:24;3.83;;;1.58;;
20997;SDS011;10657;51.276;6.390;2023-04-15T12:16:54;3.50;;;1.38;;
20997;SDS011;10657;51.276;6.390;2023-04-15T12:19:28;2.78;;;1.00;;
20997;SDS011;10657;51.276;6.390;2023-04-15T12:22:09;6.50;;;3.22;;
20997;SDS011;10657;51.276;6.390;2023-04-15T12:24:37;6.32;;;2.15;;
20997;SDS011;10657;51.276;6.390;2023-04-15T12:27:14;7.47;;;3.50;;
20997;SDS011;10657;51.276;6.390;2023-04-15T12:29:41;7.50;;;3.17;;
20997;SDS011;10657;51.276;6.390;2023-04-15T12:32:10;6.03;;;2.97;;
20997;SDS011;10657;51.276;6.390;2023-04-15T12:34:43;4.10;;;1.30;;
20997;SDS011;10657;51.276;6.390;2023-04-15T12:37:15;4.80;;;1.63;;
20997;SDS011;10657;51.276;6.390;2023-04-15T12:39:42;2.50;;;1.00;;
20997;SDS011;10657;51.276;6.390;2023-04-15T12:42:11;4.22;;;1.52;;
20997;SDS011;10657;51.276;6.390;2023-04-15T12:44:38;5.82;;;2.03;;
20997;SDS011;10657;51.276;6.390;2023-04-15T12:47:05;5.35;;;2.38;;
20997;SDS011;10657;51.276;6.390;2023-04-15T12:49:33;4.88;;;1.85;;
20997;SDS011;10657;51.276;6.390;2023-04-15T12:52:00;6.47;;;3.58;;
20997;SDS011;10657;51.276;6.390;2023-04-15T12:54:28;9.73;;;4.60;;
20997;SDS011;10657;51.276;6.390;2023-04-15T12:56:55;4.22;;;1.83;;
20997;SDS011;10657;51.276;6.390;2023-04-15T12:59:22;5.75;;;2.63;;
20997;SDS011;10657;51.276;6.390;2023-04-15T13:01:49;7.85;;;3.45;;
20997;SDS011;10657;51.276;6.390;2023-04-15T13:04:18;3.05;;;1.30;;
20997;SDS011;10657;51.276;6.390;2023-04-15T13:06:46;8.10;;;3.63;;
20997;SDS011;10657;51.276;6.390;2023-04-15T13:09:13;3.45;;;1.50;;
20997;SDS011;10657;51.276;6.390;2023-04-15T13:11:40;4.47;;;1.80;;
20997;SDS011;10657;51.276;6.390;2023-04-15T13:14:07;5.60;;;2.22;;
20997;SDS011;10657;51.276;6.390;2023-04-15T13:16:36;9.32;;;4.32;;
20997;SDS011;10657;51.276;6.390;2023-04-15T13:19:03;4.10;;;1.85;;
20997;SDS011;10657;51.276;6.390;2023-04-15T13:21:30;3.05;;;1.35;;
20997;SDS011;10657;51.276;6.390;2023-04-15T13:24:01;5.25;;;2.05;;
20997;SDS011;10657;51.276;6.390;2023-04-15T13:26:28;5.47;;;1.60;;
20997;SDS011;10657;51.276;6.390;2023-04-15T13:28:54;5.93;;;2.08;;
20997;SDS011;10657;51.276;6.390;2023-04-15T13:31:21;5.18;;;2.22;;
20997;SDS011;10657;51.276;6.390;2023-04-15T13:33:48;2.92;;;1.35;;
20997;SDS011;10657;51.276;6.390;2023-04-15T13:36:15;4.15;;;1.52;;
20997;SDS011;10657;51.276;6.390;2023-04-15T13:38:41;5.40;;;1.98;;
20997;SDS011;10657;51.276;6.390;2023-04-15T13:41:08;5.75;;;2.50;;
20997;SDS011;10657;51.276;6.390;2023-04-15T13:43:35;2.53;;;1.20;;
20997;SDS011;10657;51.276;6.390;2023-04-15T13:46:01;6.60;;;2.92;;
20997;SDS011;10657;51.276;6.390;2023-04-15T13:48:28;7.63;;;3.28;;
20997;SDS011;10657;51.276;6.390;2023-04-15T13:50:55;7.65;;;3.55;;
20997;SDS011;10657;51.276;6.390;2023-04-15T13:53:21;8.95;;;3.03;;
20997;SDS011;10657;51.276;6.390;2023-04-15T13:56:04;8.98;;;4.00;;
20997;SDS011;10657;51.276;6.390;2023-04-15T13:58:32;8.82;;;4.40;;
20997;SDS011;10657;51.276;6.390;2023-04-15T14:00:58;3.63;;;1.30;;
20997;SDS011;10657;51.276;6.390;2023-04-15T14:03:27;5.20;;;2.70;;
20997;SDS011;10657;51.276;6.390;2023-04-15T14:05:53;8.20;;;3.35;;
20997;SDS011;10657;51.276;6.390;2023-04-15T14:08:22;5.50;;;2.33;;
20997;SDS011;10657;51.276;6.390;2023-04-15T14:10:49;10.43;;;3.40;;
20997;SDS011;10657;51.276;6.390;2023-04-15T14:13:16;6.10;;;2.80;;
20997;SDS011;10657;51.276;6.390;2023-04-15T14:15:44;3.97;;;1.77;;
20997;SDS011;10657;51.276;6.390;2023-04-15T14:18:12;1.67;;;0.70;;
20997;SDS011;10657;51.276;6.390;2023-04-15T14:20:39;6.32;;;2.78;;
20997;SDS011;10657;51.276;6.390;2023-04-15T14:23:06;7.60;;;2.90;;
20997;SDS011;10657;51.276;6.390;2023-04-15T14:25:32;6.47;;;2.35;;
20997;SDS011;10657;51.276;6.390;2023-04-15T14:27:59;4.00;;;1.52;;
20997;SDS011;10657;51.276;6.390;2023-04-15T14:30:27;6.47;;;2.50;;
20997;SDS011;10657;51.276;6.390;2023-04-15T14:32:53;9.48;;;2.38;;
20997;SDS011;10657;51.276;6.390;2023-04-15T14:35:20;5.57;;;1.85;;
20997;SDS011;10657;51.276;6.390;2023-04-15T14:37:47;4.47;;;1.92;;
20997;SDS011;10657;51.276;6.390;2023-04-15T14:40:13;7.20;;;2.22;;
20997;SDS011;10657;51.276;6.390;2023-04-15T14:42:40;5.82;;;2.20;;
20997;SDS011;10657;51.276;6.390;2023-04-15T14:45:07;4.63;;;1.90;;
20997;SDS011;10657;51.276;6.390;2023-04-15T14:47:34;4.80;;;1.65;;
20997;SDS011;10657;51.276;6.390;2023-04-15T14:50:01;5.95;;;2.63;;
20997;SDS011;10657;51.276;6.390;2023-04-15T14:52:31;8.02;;;2.85;;
20997;SDS011;10657;51.276;6.390;2023-04-15T14:55:04;12.30;;;4.97;;
20997;SDS011;10657;51.276;6.390;2023-04-15T14:57:32;7.15;;;2.55;;
20997;SDS011;10657;51.276;6.390;2023-04-15T14:59:59;6.05;;;2.25;;
20997;SDS011;10657;51.276;6.390;2023-04-15T15:02:26;2.60;;;1.10;;
20997;SDS011;10657;51.276;6.390;2023-04-15T15:05:05;4.75;;;1.73;;
20997;SDS011;10657;51.276;6.390;2023-04-15T15:07:32;8.10;;;2.88;;
20997;SDS011;10657;51.276;6.390;2023-04-15T15:09:58;5.45;;;2.45;;